createdAt,value
2023-05-16T00:00:35.390Z,99952.34
2023-05-16T00:03:03.557Z,99946.78
2023-05-16T00:05:31.260Z,99954.84
2023-05-16T00:07:58.721Z,99953.91
2023-05-16T00:10:26.390Z,99952.97
2023-05-16T00:12:54.087Z,99956.84
2023-05-16T00:15:21.751Z,99950.22
2023-05-16T00:17:50.505Z,99959.72
2023-05-16T00:20:19.052Z,99953.34
2023-05-16T00:22:46.430Z,99955.84
2023-05-16T00:25:13.913Z,99957.25
2023-05-16T00:27:41.288Z,99952.75
2023-05-16T00:30:10.764Z,99947.69
2023-05-16T00:32:38.289Z,99954.72
2023-05-16T00:35:10.754Z,99950.66
2023-05-16T00:37:38.710Z,99953.09
2023-05-16T00:40:07.751Z,99949.09
2023-05-16T00:42:36.772Z,99951.16
2023-05-16T00:45:06.473Z,99941.09
2023-05-16T00:47:34.232Z,99939.22
2023-05-16T00:50:01.626Z,99931.66
2023-05-16T00:52:36.256Z,99938.91
2023-05-16T00:55:05.858Z,99933.25
2023-05-16T00:57:35.850Z,99936.44
2023-05-16T01:00:05.766Z,99944.16
2023-05-16T01:02:35.713Z,99942.97
2023-05-16T01:05:05.538Z,99936.53
2023-05-16T01:07:35.657Z,99936.81
2023-05-16T01:10:04.015Z,99932.66
2023-05-16T01:12:42.343Z,99947.56
2023-05-16T01:15:13.499Z,99954.59
2023-05-16T01:17:53.627Z,99948.41
2023-05-16T01:20:33.839Z,99954.06
2023-05-16T01:23:17.878Z,99957.03
2023-05-16T01:25:58.377Z,99962.69
2023-05-16T01:28:28.636Z,99962.97
2023-05-16T01:30:56.219Z,99961.59
2023-05-16T01:33:25.321Z,99957.81
2023-05-16T01:36:00.452Z,99961.13
2023-05-16T01:38:33.682Z,99958.56
2023-05-16T01:41:05.068Z,99966.91
2023-05-16T01:43:37.486Z,99961.13
2023-05-16T01:46:12.049Z,99957.00
2023-05-16T01:48:49.179Z,99960.50
2023-05-16T01:51:17.196Z,99956.75
2023-05-16T01:53:45.584Z,99949.66
2023-05-16T01:56:16.861Z,99953.56
2023-05-16T01:58:48.486Z,99952.75
2023-05-16T02:01:15.928Z,99958.66
2023-05-16T02:03:43.346Z,99953.00
2023-05-16T02:06:10.871Z,99946.69
2023-05-16T02:08:38.337Z,99948.69
2023-05-16T02:11:05.708Z,99950.84
2023-05-16T02:13:33.199Z,99949.50
2023-05-16T02:16:06.921Z,99956.88
2023-05-16T02:18:36.262Z,99959.44
2023-05-16T02:21:06.336Z,99970.47
2023-05-16T02:23:33.945Z,99971.91
2023-05-16T02:26:01.475Z,99969.94
2023-05-16T02:28:29.040Z,99968.00
2023-05-16T02:30:57.714Z,99965.47
2023-05-16T02:33:27.727Z,99973.00
2023-05-16T02:35:55.724Z,99971.78
2023-05-16T02:38:22.962Z,99969.63
2023-05-16T02:40:50.891Z,99972.56
2023-05-16T02:43:18.398Z,99964.47
2023-05-16T02:45:45.942Z,99960.97
2023-05-16T02:48:13.302Z,99971.97
2023-05-16T02:50:43.384Z,99975.75
2023-05-16T02:53:10.877Z,99977.63
2023-05-16T02:55:38.581Z,99975.06
2023-05-16T02:58:06.446Z,99974.94
2023-05-16T03:00:34.133Z,99977.06
2023-05-16T03:03:01.761Z,99973.00
2023-05-16T03:05:29.815Z,99968.28
2023-05-16T03:07:58.532Z,99976.47
2023-05-16T03:10:26.601Z,99968.06
2023-05-16T03:12:53.890Z,99962.38
2023-05-16T03:15:22.591Z,99964.88
2023-05-16T03:17:50.033Z,99965.78
2023-05-16T03:20:17.406Z,99966.38
2023-05-16T03:22:45.389Z,99964.94
2023-05-16T03:25:14.301Z,99964.44
2023-05-16T03:27:42.372Z,99968.38
2023-05-16T03:30:10.210Z,99973.50
2023-05-16T03:32:38.826Z,99971.34
2023-05-16T03:35:07.029Z,99967.44
2023-05-16T03:37:34.839Z,99974.75
2023-05-16T03:40:02.251Z,99975.34
2023-05-16T03:42:32.815Z,99972.34
2023-05-16T03:45:00.130Z,99981.22
2023-05-16T03:47:30.691Z,99980.00
2023-05-16T03:49:58.380Z,99974.44
2023-05-16T03:52:25.888Z,99977.69
2023-05-16T03:54:53.104Z,99974.69
2023-05-16T03:57:20.544Z,99973.41
2023-05-16T03:59:49.429Z,99980.84
2023-05-16T04:02:18.923Z,99976.66
2023-05-16T04:04:46.757Z,99985.22
2023-05-16T04:07:14.013Z,99987.31
2023-05-16T04:09:41.637Z,99984.13
2023-05-16T04:12:09.096Z,99984.13
2023-05-16T04:14:36.769Z,99994.91
2023-05-16T04:17:06.011Z,100001.97
2023-05-16T04:19:33.554Z,100010.81
2023-05-16T04:22:00.894Z,100005.84
2023-05-16T04:24:29.145Z,100022.38
2023-05-16T04:26:56.882Z,100008.09
2023-05-16T04:29:24.129Z,100009.19
2023-05-16T04:31:51.856Z,100018.03
2023-05-16T04:34:20.815Z,100019.50
2023-05-16T04:36:48.078Z,100012.41
2023-05-16T04:39:15.385Z,100017.22
2023-05-16T04:41:42.759Z,100014.97
2023-05-16T04:44:11.326Z,100016.91
2023-05-16T04:46:38.847Z,100011.88
2023-05-16T04:49:06.383Z,100018.00
2023-05-16T04:51:35.677Z,100024.88
2023-05-16T04:54:03.058Z,100021.34
2023-05-16T04:56:30.455Z,100023.28
2023-05-16T04:58:57.855Z,100028.06
2023-05-16T05:01:25.475Z,100031.09
2023-05-16T05:03:53.008Z,100030.75
2023-05-16T05:06:20.576Z,100041.16
2023-05-16T05:08:49.616Z,100033.66
2023-05-16T05:11:17.581Z,100027.19
2023-05-16T05:13:45.087Z,100030.22
2023-05-16T05:16:13.698Z,100036.47
2023-05-16T05:18:41.107Z,100035.50
2023-05-16T05:21:08.469Z,100041.47
2023-05-16T05:23:35.903Z,100039.97
2023-05-16T05:26:05.271Z,100044.94
2023-05-16T05:28:32.661Z,100042.22
2023-05-16T05:31:00.026Z,100036.25
2023-05-16T05:33:29.601Z,100044.28
2023-05-16T05:35:57.759Z,100055.53
2023-05-16T05:38:25.063Z,100050.13
2023-05-16T05:40:52.581Z,100050.13
2023-05-16T05:43:21.420Z,100061.41
2023-05-16T05:45:48.982Z,100053.00
2023-05-16T05:48:16.507Z,100049.25
2023-05-16T05:50:43.985Z,100048.66
2023-05-16T05:53:11.366Z,100040.13
2023-05-16T05:55:41.863Z,100044.72
2023-05-16T05:58:09.655Z,100042.59
2023-05-16T06:00:38.589Z,100053.34
2023-05-16T06:03:06.190Z,100062.59
2023-05-16T06:05:33.680Z,100056.19
2023-05-16T06:08:01.131Z,100059.50
2023-05-16T06:10:28.929Z,100067.19
2023-05-16T06:12:56.706Z,100072.25
2023-05-16T06:15:25.361Z,100069.25
2023-05-16T06:17:54.234Z,100074.66
2023-05-16T06:20:21.664Z,100065.59
2023-05-16T06:22:49.209Z,100069.19
2023-05-16T06:25:16.714Z,100061.06
2023-05-16T06:27:44.057Z,100069.16
2023-05-16T06:30:12.032Z,100062.41
2023-05-16T06:32:41.085Z,100058.56
2023-05-16T06:35:10.331Z,100059.63
2023-05-16T06:37:37.717Z,100059.38
2023-05-16T06:40:06.280Z,100070.28
2023-05-16T06:42:34.010Z,100051.34
2023-05-16T06:45:01.636Z,100057.41
2023-05-16T06:47:34.350Z,100061.22
2023-05-16T06:50:01.840Z,100051.00
2023-05-16T06:52:33.788Z,100058.63
2023-05-16T06:55:01.293Z,100059.66
2023-05-16T06:57:29.473Z,100047.69
2023-05-16T06:59:56.912Z,100054.88
2023-05-16T07:02:24.563Z,100050.47
2023-05-16T07:04:52.294Z,100057.66
2023-05-16T07:07:19.796Z,100056.06
2023-05-16T07:09:48.667Z,100048.69
2023-05-16T07:12:16.259Z,100045.84
2023-05-16T07:14:43.865Z,100049.88
2023-05-16T07:17:11.955Z,100056.06
2023-05-16T07:19:39.597Z,100052.06
2023-05-16T07:22:07.144Z,100049.91
2023-05-16T07:24:34.732Z,100037.69
2023-05-16T07:27:03.930Z,100045.69
2023-05-16T07:29:31.423Z,100044.50
2023-05-16T07:31:59.593Z,100057.25
2023-05-16T07:34:27.296Z,100043.28
2023-05-16T07:36:54.800Z,100041.72
2023-05-16T07:39:22.369Z,100052.84
2023-05-16T07:41:49.893Z,100053.44
2023-05-16T07:44:18.650Z,100048.44
2023-05-16T07:46:46.063Z,100042.03
2023-05-16T07:49:13.628Z,100044.84
2023-05-16T07:51:41.256Z,100038.06
2023-05-16T07:54:08.856Z,100049.41
2023-05-16T07:56:36.256Z,100045.66
2023-05-16T07:59:06.022Z,100036.25
2023-05-16T08:01:34.834Z,100043.63
2023-05-16T08:04:02.308Z,100039.25
2023-05-16T08:06:30.002Z,100046.47
2023-05-16T08:08:57.640Z,100057.28
2023-05-16T08:11:25.264Z,100042.88
2023-05-16T08:13:53.015Z,100036.09
2023-05-16T08:16:20.680Z,100044.09
2023-05-16T08:18:49.611Z,100047.88
2023-05-16T08:21:17.175Z,100046.06
2023-05-16T08:23:44.585Z,100044.88
2023-05-16T08:26:12.018Z,100033.69
2023-05-16T08:28:39.573Z,100039.06
2023-05-16T08:31:07.189Z,100042.09
2023-05-16T08:33:34.597Z,100043.09
2023-05-16T08:36:03.830Z,100036.88
2023-05-16T08:38:31.224Z,100036.50
2023-05-16T08:40:58.767Z,100042.06
2023-05-16T08:43:26.229Z,100039.06
2023-05-16T08:45:53.527Z,100033.25
2023-05-16T08:48:23.934Z,100029.25
2023-05-16T08:50:51.859Z,100021.25
2023-05-16T08:53:23.136Z,100022.06
2023-05-16T08:55:51.840Z,100028.88
2023-05-16T08:58:19.784Z,100018.28
2023-05-16T09:00:47.996Z,100028.47
2023-05-16T09:03:16.191Z,100008.91
2023-05-16T09:05:43.715Z,100024.69
2023-05-16T09:08:31.201Z,100010.06
2023-05-16T09:10:58.823Z,100017.47
2023-05-16T09:13:26.617Z,100005.44
2023-05-16T09:16:09.571Z,100012.75
2023-05-16T09:18:37.999Z,100014.72
2023-05-16T09:21:05.570Z,100014.09
2023-05-16T09:23:36.503Z,100017.50
2023-05-16T09:26:08.257Z,100016.34
2023-05-16T09:28:38.888Z,100020.66
2023-05-16T09:31:20.779Z,100016.63
2023-05-16T09:33:49.575Z,100011.06
2023-05-16T09:36:16.972Z,100002.25
2023-05-16T09:38:45.961Z,100002.44
2023-05-16T09:41:13.562Z,99999.41
2023-05-16T09:43:43.184Z,99995.63
2023-05-16T09:46:14.638Z,99992.22
2023-05-16T09:48:44.971Z,99992.63
2023-05-16T09:51:13.276Z,99980.19
2023-05-16T09:53:42.058Z,99999.63
2023-05-16T09:56:13.699Z,99988.97
2023-05-16T09:58:42.833Z,99978.97
2023-05-16T10:01:11.214Z,99981.53
2023-05-16T10:03:40.993Z,99975.06
2023-05-16T10:06:09.290Z,99975.97
2023-05-16T10:08:37.685Z,99972.03
2023-05-16T10:11:06.755Z,99970.38
2023-05-16T10:13:36.887Z,99976.03
2023-05-16T10:16:08.605Z,99970.75
2023-05-16T10:18:37.040Z,99976.97
2023-05-16T10:21:08.931Z,99959.00
2023-05-16T10:23:41.382Z,99954.47
2023-05-16T10:26:09.637Z,99948.44
2023-05-16T10:28:39.118Z,99944.38
2023-05-16T10:31:08.121Z,99953.84
2023-05-16T10:33:36.756Z,99963.66
2023-05-16T10:36:05.773Z,99950.03
2023-05-16T10:38:34.919Z,99957.78
2023-05-16T10:41:02.808Z,99951.72
2023-05-16T10:43:31.177Z,99947.00
2023-05-16T10:46:04.121Z,99956.66
2023-05-16T10:48:32.983Z,99941.88
2023-05-16T10:51:00.728Z,99956.31
2023-05-16T10:53:33.050Z,99948.06
2023-05-16T10:56:11.592Z,99947.72
2023-05-16T10:58:47.225Z,99936.75
2023-05-16T11:01:24.493Z,99935.28
2023-05-16T11:04:10.409Z,99928.97
2023-05-16T11:06:52.555Z,99931.56
2023-05-16T11:09:23.525Z,99926.59
2023-05-16T11:12:03.010Z,99923.31
2023-05-16T11:14:37.691Z,99925.94
2023-05-16T11:17:10.817Z,99918.25
2023-05-16T11:19:43.683Z,99927.22
2023-05-16T11:22:23.210Z,99918.06
2023-05-16T11:24:56.659Z,99914.50
2023-05-16T11:27:27.149Z,99920.31
2023-05-16T11:29:56.410Z,99914.16
2023-05-16T11:32:25.310Z,99908.94
2023-05-16T11:34:53.496Z,99909.38
2023-05-16T11:37:21.447Z,99909.19
2023-05-16T11:39:49.129Z,99913.91
2023-05-16T11:42:16.811Z,99902.22
2023-05-16T11:44:44.715Z,99912.78
2023-05-16T11:47:12.907Z,99901.34
2023-05-16T11:49:41.892Z,99905.53
2023-05-16T11:52:09.799Z,99905.63
2023-05-16T11:54:38.560Z,99911.63
2023-05-16T11:57:06.466Z,99915.50
2023-05-16T11:59:33.949Z,99911.78
2023-05-16T12:02:05.266Z,99908.59
2023-05-16T12:04:32.934Z,99895.69
2023-05-16T12:07:02.415Z,99911.97
2023-05-16T12:09:30.292Z,99905.84
2023-05-16T12:11:57.927Z,99908.91
2023-05-16T12:14:26.284Z,99909.59
2023-05-16T12:16:54.423Z,99905.03
2023-05-16T12:19:22.236Z,99907.91
2023-05-16T12:21:53.574Z,99894.38
2023-05-16T12:24:22.614Z,99903.81
2023-05-16T12:26:53.702Z,99913.59
2023-05-16T12:29:22.085Z,99898.56
2023-05-16T12:31:53.473Z,99893.78
2023-05-16T12:34:21.991Z,99891.09
2023-05-16T12:36:53.233Z,99884.06
2023-05-16T12:39:23.334Z,99885.31
2023-05-16T12:41:50.705Z,99896.19
2023-05-16T12:44:19.906Z,99891.09
2023-05-16T12:46:50.341Z,99893.72
2023-05-16T12:49:20.603Z,99887.25
2023-05-16T12:51:52.948Z,99885.06
2023-05-16T12:54:23.032Z,99887.41
2023-05-16T12:56:52.036Z,99886.19
2023-05-16T12:59:20.460Z,99882.94
2023-05-16T13:01:49.294Z,99877.16
2023-05-16T13:04:19.556Z,99881.22
2023-05-16T13:06:57.373Z,99872.94
2023-05-16T13:09:31.090Z,99881.28
2023-05-16T13:12:01.696Z,99889.88
2023-05-16T13:14:29.360Z,99876.44
2023-05-16T13:16:56.783Z,99888.47
2023-05-16T13:19:24.591Z,99882.84
2023-05-16T13:21:52.238Z,99873.00
2023-05-16T13:24:19.676Z,99871.72
2023-05-16T13:26:47.097Z,99869.56
2023-05-16T13:29:16.258Z,99878.47
2023-05-16T13:31:43.797Z,99882.03
2023-05-16T13:34:11.238Z,99874.53
2023-05-16T13:36:53.177Z,99887.91
2023-05-16T13:39:22.741Z,99874.13
2023-05-16T13:41:50.450Z,99875.84
2023-05-16T13:44:19.640Z,99870.72
2023-05-16T13:46:47.230Z,99867.09
2023-05-16T13:49:15.083Z,99865.19
2023-05-16T13:51:42.335Z,99868.41
2023-05-16T13:54:09.723Z,99865.00
2023-05-16T13:56:38.530Z,99868.16
2023-05-16T13:59:07.159Z,99851.81
2023-05-16T14:01:37.106Z,99843.03
2023-05-16T14:04:04.907Z,99851.16
2023-05-16T14:06:32.293Z,99854.69
2023-05-16T14:09:00.038Z,99845.13
2023-05-16T14:11:29.086Z,99850.13
2023-05-16T14:13:57.902Z,99843.97
2023-05-16T14:16:25.468Z,99847.94
2023-05-16T14:18:54.335Z,99853.81
2023-05-16T14:21:21.848Z,99854.66
2023-05-16T14:23:49.263Z,99832.50
2023-05-16T14:26:18.207Z,99839.88
2023-05-16T14:28:45.804Z,99833.53
2023-05-16T14:31:13.325Z,99835.81
2023-05-16T14:33:41.286Z,99843.75
2023-05-16T14:36:10.658Z,99845.00
2023-05-16T14:38:38.050Z,99841.16
2023-05-16T14:41:05.714Z,99836.38
2023-05-16T14:43:33.140Z,99842.16
2023-05-16T14:46:00.967Z,99844.56
2023-05-16T14:48:28.583Z,99845.44
2023-05-16T14:50:55.953Z,99841.41
2023-05-16T14:53:24.643Z,99837.78
2023-05-16T14:55:52.140Z,99839.38
2023-05-16T14:58:19.543Z,99846.53
2023-05-16T15:00:46.910Z,99845.66
2023-05-16T15:03:15.899Z,99845.38
2023-05-16T15:05:43.714Z,99855.84
2023-05-16T15:08:11.091Z,99839.97
2023-05-16T15:10:40.022Z,99841.19
2023-05-16T15:13:07.449Z,99846.34
2023-05-16T15:15:35.053Z,99848.53
2023-05-16T15:18:02.758Z,99836.97
2023-05-16T15:20:30.630Z,99836.22
2023-05-16T15:22:58.226Z,99839.78
2023-05-16T15:25:26.008Z,99845.50
2023-05-16T15:27:55.345Z,99836.38
2023-05-16T15:30:22.735Z,99843.47
2023-05-16T15:32:50.294Z,99850.47
2023-05-16T15:35:18.260Z,99846.06
2023-05-16T15:37:45.846Z,99841.94
2023-05-16T15:40:14.776Z,99844.91
2023-05-16T15:42:44.396Z,99844.53
2023-05-16T15:45:13.550Z,99835.25
2023-05-16T15:47:42.064Z,99838.13
2023-05-16T15:50:10.592Z,99841.41
2023-05-16T15:52:37.916Z,99838.69
2023-05-16T15:55:06.589Z,99846.50
2023-05-16T15:57:34.168Z,99834.72
2023-05-16T16:00:01.588Z,99833.53
2023-05-16T16:02:33.994Z,99840.72
2023-05-16T16:05:01.889Z,99841.16
2023-05-16T16:07:29.559Z,99842.59
2023-05-16T16:09:59.687Z,99848.78
2023-05-16T16:12:29.702Z,99844.00
2023-05-16T16:14:57.124Z,99847.59
2023-05-16T16:17:24.523Z,99846.41
2023-05-16T16:19:53.545Z,99852.78
2023-05-16T16:22:22.361Z,99856.97
2023-05-16T16:24:50.490Z,99859.75
2023-05-16T16:27:17.940Z,99868.38
2023-05-16T16:29:45.286Z,99873.75
2023-05-16T16:32:12.794Z,99881.53
2023-05-16T16:34:40.177Z,99874.97
2023-05-16T16:37:10.206Z,99873.97
2023-05-16T16:39:38.615Z,99871.97
2023-05-16T16:42:06.978Z,99875.75
2023-05-16T16:44:34.495Z,99879.34
2023-05-16T16:47:02.317Z,99873.94
2023-05-16T16:49:31.509Z,99870.16
2023-05-16T16:51:59.027Z,99876.75
2023-05-16T16:54:28.295Z,99871.97
2023-05-16T16:56:56.482Z,99883.53
2023-05-16T16:59:24.073Z,99886.72
2023-05-16T17:01:51.690Z,99879.94
2023-05-16T17:04:19.203Z,99889.50
2023-05-16T17:06:48.579Z,99884.09
2023-05-16T17:09:17.988Z,99880.31
2023-05-16T17:11:46.958Z,99877.06
2023-05-16T17:14:15.271Z,99884.84
2023-05-16T17:16:43.115Z,99878.81
2023-05-16T17:19:11.318Z,99881.03
2023-05-16T17:21:40.854Z,99877.81
2023-05-16T17:24:08.648Z,99883.78
2023-05-16T17:26:36.310Z,99882.38
2023-05-16T17:29:06.092Z,99886.72
2023-05-16T17:31:33.648Z,99886.53
2023-05-16T17:34:03.839Z,99889.28
2023-05-16T17:36:31.280Z,99889.44
2023-05-16T17:38:59.477Z,99890.22
2023-05-16T17:41:27.200Z,99896.94
2023-05-16T17:43:54.659Z,99889.75
2023-05-16T17:46:23.352Z,99887.13
2023-05-16T17:48:50.982Z,99900.88
2023-05-16T17:51:18.559Z,99902.25
2023-05-16T17:53:45.953Z,99897.47
2023-05-16T17:56:14.143Z,99910.41
2023-05-16T17:58:42.702Z,99906.59
2023-05-16T18:01:10.403Z,99906.50
2023-05-16T18:03:41.402Z,99912.25
2023-05-16T18:06:09.368Z,99908.44
2023-05-16T18:08:36.927Z,99911.56
2023-05-16T18:11:04.255Z,99909.34
2023-05-16T18:13:31.680Z,99913.91
2023-05-16T18:15:59.003Z,99916.06
2023-05-16T18:18:27.290Z,99921.81
2023-05-16T18:20:56.243Z,99915.03
2023-05-16T18:23:24.876Z,99917.00
2023-05-16T18:25:52.266Z,99919.53
2023-05-16T18:28:19.786Z,99917.47
2023-05-16T18:30:47.242Z,99915.28
2023-05-16T18:33:14.725Z,99910.50
2023-05-16T18:35:42.226Z,99916.03
2023-05-16T18:38:20.328Z,99915.84
2023-05-16T18:40:56.124Z,99928.69
2023-05-16T18:43:23.793Z,99925.28
2023-05-16T18:45:51.254Z,99926.97
2023-05-16T18:48:19.186Z,99921.75
2023-05-16T18:50:46.916Z,99931.03
2023-05-16T18:53:15.689Z,99923.38
2023-05-16T18:55:43.008Z,99929.19
2023-05-16T18:58:11.439Z,99931.78
2023-05-16T19:00:38.823Z,99926.78
2023-05-16T19:03:06.224Z,99929.88
2023-05-16T19:05:34.550Z,99937.03
2023-05-16T19:08:02.396Z,99920.63
2023-05-16T19:10:32.667Z,99938.09
2023-05-16T19:13:07.161Z,99940.06
2023-05-16T19:15:35.109Z,99936.50
2023-05-16T19:18:02.885Z,99932.88
2023-05-16T19:20:30.688Z,99927.19
2023-05-16T19:22:58.242Z,99932.44
2023-05-16T19:25:26.540Z,99929.59
2023-05-16T19:27:55.467Z,99922.38
2023-05-16T19:30:23.976Z,99927.09
2023-05-16T19:32:51.844Z,99931.47
2023-05-16T19:35:19.709Z,99930.22
2023-05-16T19:37:47.597Z,99925.25
2023-05-16T19:40:17.100Z,99924.16
2023-05-16T19:42:44.957Z,99926.84
2023-05-16T19:45:13.953Z,99935.28
2023-05-16T19:47:41.670Z,99928.53
2023-05-16T19:50:10.125Z,99920.19
2023-05-16T19:52:37.616Z,99926.13
2023-05-16T19:55:08.583Z,99927.28
2023-05-16T19:57:36.100Z,99923.28
2023-05-16T20:00:05.425Z,99925.94
2023-05-16T20:02:43.406Z,99931.81
2023-05-16T20:05:11.172Z,99929.13
2023-05-16T20:07:40.496Z,99940.59
2023-05-16T20:10:09.237Z,99936.94
2023-05-16T20:12:37.110Z,99941.44
2023-05-16T20:15:08.304Z,99940.19
2023-05-16T20:17:38.825Z,99945.53
2023-05-16T20:20:09.252Z,99939.91
2023-05-16T20:22:39.029Z,99945.06
2023-05-16T20:25:07.641Z,99952.44
2023-05-16T20:27:35.528Z,99949.53
2023-05-16T20:30:04.356Z,99948.22
2023-05-16T20:32:32.021Z,99945.47
2023-05-16T20:34:59.475Z,99943.06
2023-05-16T20:37:28.415Z,99944.03
2023-05-16T20:39:55.926Z,99948.53
2023-05-16T20:42:41.622Z,99935.03
2023-05-16T20:45:09.806Z,99943.09
2023-05-16T20:47:37.491Z,99947.50
2023-05-16T20:50:06.143Z,99945.69
2023-05-16T20:52:36.024Z,99951.19
2023-05-16T20:55:03.594Z,99947.28
2023-05-16T20:57:34.225Z,99948.75
2023-05-16T21:00:01.627Z,99951.13
2023-05-16T21:02:37.378Z,99950.16
2023-05-16T21:05:34.679Z,99950.00
2023-05-16T21:07:54.806Z,99954.97
2023-05-16T21:10:22.136Z,99943.66
2023-05-16T21:12:50.415Z,99942.69
2023-05-16T21:15:17.932Z,99954.97
2023-05-16T21:17:45.480Z,99944.19
2023-05-16T21:20:13.016Z,99944.56
2023-05-16T21:22:41.011Z,99941.25
2023-05-16T21:25:10.313Z,99934.84
2023-05-16T21:27:37.899Z,99938.25
2023-05-16T21:30:05.837Z,99925.63
2023-05-16T21:32:34.084Z,99928.88
2023-05-16T21:35:01.524Z,99928.59
2023-05-16T21:37:31.109Z,99935.41
2023-05-16T21:39:58.463Z,99921.09
2023-05-16T21:42:27.218Z,99918.69
2023-05-16T21:44:54.721Z,99921.00
2023-05-16T21:47:22.339Z,99913.13
2023-05-16T21:49:49.957Z,99926.00
2023-05-16T21:52:17.679Z,99920.72
2023-05-16T21:54:51.511Z,99911.09
2023-05-16T21:57:19.869Z,99919.53
2023-05-16T21:59:50.676Z,99922.13
2023-05-16T22:02:22.942Z,99918.00
2023-05-16T22:04:51.260Z,99917.38
2023-05-16T22:07:18.988Z,99926.44
2023-05-16T22:09:50.907Z,99925.84
2023-05-16T22:12:18.210Z,99923.75
2023-05-16T22:14:45.764Z,99925.03
2023-05-16T22:17:14.891Z,99928.75
2023-05-16T22:19:45.292Z,99913.47
2023-05-16T22:22:12.921Z,99920.06
2023-05-16T22:24:40.396Z,99924.25
2023-05-16T22:27:08.086Z,99920.06
2023-05-16T22:29:38.417Z,99920.22
2023-05-16T22:32:07.567Z,99921.19
2023-05-16T22:34:40.531Z,99921.53
2023-05-16T22:37:08.907Z,99927.03
2023-05-16T22:39:36.305Z,99921.88
2023-05-16T22:42:03.952Z,99921.06
2023-05-16T22:44:31.318Z,99919.63
2023-05-16T22:46:58.709Z,99915.44
2023-05-16T22:49:26.013Z,99919.97
2023-05-16T22:51:54.712Z,99919.31
2023-05-16T22:54:21.923Z,99916.13
2023-05-16T22:56:49.262Z,99919.19
2023-05-16T22:59:16.756Z,99920.44
2023-05-16T23:01:44.068Z,99921.75
2023-05-16T23:04:11.635Z,99926.91
2023-05-16T23:06:39.070Z,99927.22
2023-05-16T23:09:07.724Z,99925.97
2023-05-16T23:11:35.071Z,99923.38
2023-05-16T23:14:02.448Z,99925.63
2023-05-16T23:16:29.754Z,99925.16
2023-05-16T23:18:57.059Z,99924.03
2023-05-16T23:21:24.550Z,99924.06
2023-05-16T23:23:52.015Z,99925.16
2023-05-16T23:26:20.608Z,99917.13
2023-05-16T23:28:47.954Z,99921.78
2023-05-16T23:31:15.312Z,99927.38
2023-05-16T23:33:42.548Z,99925.44
2023-05-16T23:36:10.032Z,99928.03
2023-05-16T23:38:37.288Z,99928.66
2023-05-16T23:41:04.769Z,99923.03
2023-05-16T23:43:33.532Z,99924.00
2023-05-16T23:46:00.958Z,99928.47
2023-05-16T23:48:28.468Z,99935.22
2023-05-16T23:50:56.916Z,99930.91
2023-05-16T23:53:29.083Z,99937.66
2023-05-16T23:55:56.460Z,99934.13
2023-05-16T23:58:23.780Z,99935.56
